createdAt,value
2018-06-01T00:02:05.417Z,20.80
2018-06-01T00:04:33.773Z,22.50
2018-06-01T00:07:02.104Z,20.30
2018-06-01T00:09:30.455Z,19.83
2018-06-01T00:11:58.788Z,19.20
2018-06-01T00:14:27.140Z,21.93
2018-06-01T00:16:55.467Z,22.33
2018-06-01T00:19:23.820Z,23.53
2018-06-01T00:21:52.152Z,22.00
2018-06-01T00:24:20.500Z,22.63
2018-06-01T00:26:48.828Z,22.13
2018-06-01T00:29:17.184Z,20.33
2018-06-01T00:31:45.516Z,18.80
2018-06-01T00:34:13.867Z,21.50
2018-06-01T00:36:42.192Z,20.90
2018-06-01T00:39:10.549Z,19.97
2018-06-01T00:41:38.876Z,20.40
2018-06-01T00:44:07.229Z,21.20
2018-06-01T00:46:35.560Z,19.40
2018-06-01T00:49:03.917Z,19.20
2018-06-01T00:51:32.249Z,19.43
2018-06-01T00:54:00.605Z,17.73
2018-06-01T00:56:28.944Z,18.30
2018-06-01T00:58:57.288Z,18.00
2018-06-01T01:01:25.637Z,15.80
2018-06-01T01:03:53.968Z,17.97
2018-06-01T01:06:22.312Z,17.37
2018-06-01T01:08:50.649Z,18.37
2018-06-01T01:11:18.996Z,18.47
2018-06-01T01:13:47.330Z,17.13
2018-06-01T01:16:15.676Z,17.90
2018-06-01T01:18:44.004Z,17.30
2018-06-01T01:21:12.352Z,16.43
2018-06-01T01:23:40.680Z,17.47
2018-06-01T01:26:09.035Z,16.93
2018-06-01T01:28:37.365Z,18.67
2018-06-01T01:31:05.715Z,20.27
2018-06-01T01:33:34.040Z,19.10
2018-06-01T01:36:02.397Z,20.70
2018-06-01T01:38:30.724Z,19.33
2018-06-01T01:40:59.084Z,19.40
2018-06-01T01:43:27.414Z,21.90
2018-06-01T01:45:55.765Z,24.53
2018-06-01T01:48:24.100Z,24.10
2018-06-01T01:50:52.448Z,24.70
2018-06-01T01:53:20.782Z,25.13
2018-06-01T01:55:49.132Z,22.20
2018-06-01T01:58:18.352Z,22.27
2018-06-01T02:00:46.704Z,22.67
2018-06-01T02:03:15.041Z,22.07
2018-06-01T02:05:43.397Z,22.60
2018-06-01T02:08:11.727Z,21.10
2018-06-01T02:10:40.081Z,23.60
2018-06-01T02:13:12.365Z,23.40
2018-06-01T02:15:40.714Z,25.20
2018-06-01T02:18:09.041Z,24.20
2018-06-01T02:20:37.400Z,23.90
2018-06-01T02:23:05.728Z,24.50
2018-06-01T02:25:34.077Z,26.10
2018-06-01T02:28:02.408Z,25.03
2018-06-01T02:30:30.759Z,26.77
2018-06-01T02:32:59.088Z,26.70
2018-06-01T02:35:27.436Z,27.70
2018-06-01T02:37:55.765Z,28.40
2018-06-01T02:40:24.121Z,30.87
2018-06-01T02:42:52.460Z,27.30
2018-06-01T02:45:20.837Z,30.57
2018-06-01T02:47:49.176Z,33.07
2018-06-01T02:50:17.529Z,33.93
2018-06-01T02:52:45.859Z,32.47
2018-06-01T02:55:14.212Z,32.30
2018-06-01T02:57:42.545Z,31.47
2018-06-01T03:00:10.904Z,35.00
2018-06-01T03:02:39.231Z,34.40
2018-06-01T03:05:07.556Z,34.67
2018-06-01T03:07:35.908Z,34.80
2018-06-01T03:10:04.248Z,34.53
2018-06-01T03:12:32.601Z,33.60
2018-06-01T03:15:00.934Z,32.03
2018-06-01T03:17:29.279Z,33.20
2018-06-01T03:19:57.613Z,35.67
2018-06-01T03:22:25.965Z,33.30
2018-06-01T03:24:54.288Z,34.90
2018-06-01T03:27:22.645Z,32.30
2018-06-01T03:29:50.973Z,31.90
2018-06-01T03:32:19.324Z,31.13
2018-06-01T03:34:47.653Z,31.23
2018-06-01T03:37:16.035Z,32.70
2018-06-01T03:39:44.337Z,31.80
2018-06-01T03:42:12.687Z,34.37
2018-06-01T03:44:41.024Z,34.60
2018-06-01T03:47:09.380Z,34.80
2018-06-01T03:49:37.712Z,33.47
2018-06-01T03:52:06.060Z,33.03
2018-06-01T03:54:34.393Z,35.07
2018-06-01T03:57:02.744Z,38.10
2018-06-01T03:59:31.073Z,36.70
2018-06-01T04:01:59.428Z,36.90
2018-06-01T04:04:27.760Z,37.57
2018-06-01T04:06:56.104Z,37.50
2018-06-01T04:09:27.964Z,34.27
2018-06-01T04:11:56.322Z,35.47
2018-06-01T04:14:24.652Z,36.20
2018-06-01T04:16:53.001Z,34.77
2018-06-01T04:19:21.337Z,38.00
2018-06-01T04:21:49.693Z,40.27
2018-06-01T04:24:18.029Z,42.57
2018-06-01T04:26:46.381Z,41.87
2018-06-01T04:29:14.928Z,41.90
2018-06-01T04:31:43.276Z,42.60
2018-06-01T04:34:11.605Z,45.90
2018-06-01T04:36:39.956Z,46.17
2018-06-01T04:39:08.293Z,44.97
2018-06-01T04:41:36.644Z,49.70
2018-06-01T04:44:04.988Z,45.10
2018-06-01T04:46:33.340Z,42.03
2018-06-01T04:49:01.673Z,45.80
2018-06-01T04:51:30.037Z,45.40
2018-06-01T04:53:58.372Z,43.23
2018-06-01T04:56:26.727Z,44.83
2018-06-01T04:58:55.068Z,44.42
2018-06-01T05:01:23.424Z,47.75
2018-06-01T05:03:51.759Z,49.80
2018-06-01T05:06:20.124Z,52.77
2018-06-01T05:08:48.489Z,50.23
2018-06-01T05:11:16.830Z,49.30
2018-06-01T05:13:45.189Z,51.37
2018-06-01T05:16:13.528Z,51.45
2018-06-01T05:18:41.889Z,52.63
2018-06-01T05:21:10.220Z,52.93
2018-06-01T05:23:38.576Z,54.10
2018-06-01T05:26:06.991Z,53.55
2018-06-01T05:28:35.343Z,56.27
2018-06-01T05:31:03.698Z,53.60
2018-06-01T05:33:32.102Z,54.67
2018-06-01T05:36:00.440Z,52.30
2018-06-01T05:38:28.812Z,52.45
2018-06-01T05:40:57.150Z,53.83
2018-06-01T05:43:25.509Z,53.50
2018-06-01T05:45:53.849Z,50.20
2018-06-01T05:48:22.212Z,51.20
2018-06-01T05:50:50.548Z,50.90
2018-06-01T05:53:18.908Z,51.87
2018-06-01T05:55:47.244Z,50.55
2018-06-01T05:58:15.600Z,54.73
2018-06-01T06:00:43.945Z,53.97
2018-06-01T06:03:12.632Z,53.33
2018-06-01T06:05:41.020Z,51.77
2018-06-01T06:08:09.377Z,53.00
2018-06-01T06:10:37.720Z,53.85
2018-06-01T06:13:06.916Z,50.50
2018-06-01T06:15:35.248Z,53.30
2018-06-01T06:18:03.604Z,54.28
2018-06-01T06:20:31.941Z,54.42
2018-06-01T06:23:00.297Z,51.57
2018-06-01T06:25:28.632Z,55.60
2018-06-01T06:27:56.996Z,58.13
2018-06-01T06:30:25.328Z,55.57
2018-06-01T06:32:53.687Z,55.53
2018-06-01T06:35:22.021Z,57.15
2018-06-01T06:37:50.389Z,59.38
2018-06-01T06:40:18.725Z,57.15
2018-06-01T06:42:47.089Z,56.33
2018-06-01T06:45:15.430Z,58.93
2018-06-01T06:47:43.785Z,58.47
2018-06-01T06:50:12.125Z,57.22
2018-06-01T06:52:40.485Z,56.27
2018-06-01T06:55:08.819Z,58.40
2018-06-01T06:57:37.196Z,57.67
2018-06-01T07:00:05.528Z,59.42
2018-06-01T07:02:33.885Z,55.53
2018-06-01T07:05:02.220Z,54.90
2018-06-01T07:07:30.580Z,56.23
2018-06-01T07:09:58.940Z,55.10
2018-06-01T07:12:27.280Z,56.78
2018-06-01T07:14:55.636Z,55.80
2018-06-01T07:17:23.972Z,57.57
2018-06-01T07:19:52.330Z,56.40
2018-06-01T07:22:20.724Z,54.77
2018-06-01T07:24:49.020Z,56.95
2018-06-01T07:27:17.360Z,53.70
2018-06-01T07:29:45.721Z,54.70
2018-06-01T07:32:14.056Z,52.60
2018-06-01T07:34:42.417Z,53.77
2018-06-01T07:37:11.037Z,49.90
2018-06-01T07:39:39.444Z,50.70
2018-06-01T07:42:07.836Z,52.40
2018-06-01T07:44:36.196Z,49.93
2018-06-01T07:47:06.967Z,50.20
2018-06-01T07:49:35.336Z,49.47
2018-06-01T07:52:03.673Z,50.40
2018-06-01T07:54:32.359Z,50.07
2018-06-01T07:57:00.690Z,49.70
2018-06-01T07:59:29.052Z,51.15
2018-06-01T08:01:57.700Z,47.80
2018-06-01T08:04:26.631Z,46.50
2018-06-01T08:06:54.973Z,47.23
2018-06-01T08:09:23.596Z,48.33
2018-06-01T08:11:51.940Z,47.60
2018-06-01T08:14:20.465Z,48.55
2018-06-01T08:16:48.805Z,47.17
2018-06-01T08:19:17.159Z,47.40
2018-06-01T08:21:45.501Z,48.53
2018-06-01T08:24:14.380Z,47.90
2018-06-01T08:26:42.716Z,47.40
2018-06-01T08:29:11.086Z,48.07
2018-06-01T08:31:39.421Z,45.63
2018-06-01T08:34:07.781Z,44.73
2018-06-01T08:36:36.124Z,46.42
2018-06-01T08:39:04.490Z,45.95
2018-06-01T08:41:32.820Z,41.97
2018-06-01T08:44:01.885Z,42.47
2018-06-01T08:46:30.255Z,42.90
2018-06-01T08:48:58.582Z,46.00
2018-06-01T08:51:26.914Z,41.03
2018-06-01T08:53:55.280Z,42.70
2018-06-01T08:56:23.612Z,38.10
2018-06-01T08:58:51.999Z,40.60
2018-06-01T09:01:20.316Z,40.80
2018-06-01T09:03:48.673Z,38.40
2018-06-01T09:06:17.009Z,40.10
2018-06-01T09:08:45.364Z,45.40
2018-06-01T09:11:13.704Z,44.30
2018-06-01T09:13:42.072Z,43.03
2018-06-01T09:16:10.410Z,35.15
2018-06-01T09:18:38.758Z,40.42
2018-06-01T09:21:07.113Z,38.72
2018-06-01T09:23:35.508Z,41.37
2018-06-01T09:26:03.868Z,39.03
2018-06-01T09:28:32.212Z,38.03
2018-06-01T09:31:00.565Z,36.13
2018-06-01T09:33:28.900Z,37.83
2018-06-01T09:35:57.256Z,36.50
2018-06-01T09:38:25.593Z,34.80
2018-06-01T09:40:53.964Z,36.40
2018-06-01T09:43:22.304Z,36.57
2018-06-01T09:45:50.665Z,34.77
2018-06-01T09:48:19.872Z,36.50
2018-06-01T09:50:48.236Z,37.08
2018-06-01T09:53:16.572Z,39.03
2018-06-01T09:55:44.932Z,40.00
2018-06-01T09:58:13.269Z,37.07
2018-06-01T10:00:47.280Z,36.37
2018-06-01T10:03:15.617Z,39.30
2018-06-01T10:05:43.968Z,36.90
2018-06-01T10:08:12.310Z,39.53
2018-06-01T10:10:40.661Z,37.33
2018-06-01T10:13:09.000Z,36.38
2018-06-01T10:15:37.437Z,37.50
2018-06-01T10:18:05.696Z,34.90
2018-06-01T10:20:34.913Z,33.15
2018-06-01T10:23:03.192Z,37.43
2018-06-01T10:25:31.555Z,36.93
2018-06-01T10:27:59.888Z,37.00
2018-06-01T10:30:28.249Z,35.50
2018-06-01T10:32:56.618Z,37.17
2018-06-01T10:35:24.956Z,38.42
2018-06-01T10:37:53.605Z,36.80
2018-06-01T10:40:22.131Z,38.60
2018-06-01T10:42:50.649Z,42.28
2018-06-01T10:45:18.994Z,45.20
2018-06-01T10:47:47.328Z,45.07
2018-06-01T10:50:15.692Z,46.97
2018-06-01T10:52:44.039Z,43.90
2018-06-01T10:55:12.434Z,44.17
2018-06-01T10:57:40.720Z,41.37
2018-06-01T11:00:09.076Z,45.30
2018-06-01T11:02:37.411Z,42.03
2018-06-01T11:05:05.765Z,45.40
2018-06-01T11:07:34.109Z,45.33
2018-06-01T11:10:02.469Z,47.17
2018-06-01T11:12:30.807Z,48.67
2018-06-01T11:14:59.160Z,28.90
2018-06-01T11:17:27.502Z,25.20
2018-06-01T11:19:55.872Z,24.85
2018-06-01T11:22:24.536Z,22.47
2018-06-01T11:24:52.956Z,22.17
2018-06-01T11:27:21.397Z,25.00
2018-06-01T11:29:49.729Z,21.17
2018-06-01T11:32:18.155Z,12.43
2018-06-01T11:34:46.513Z,9.93
2018-06-01T11:37:14.861Z,7.65
2018-06-01T11:39:43.229Z,6.80
2018-06-01T11:42:11.598Z,4.33
2018-06-01T11:44:39.932Z,4.70
2018-06-01T11:47:08.323Z,4.13
2018-06-01T11:49:36.713Z,5.70
2018-06-01T11:52:05.192Z,4.70
2018-06-01T11:54:33.521Z,4.78
2018-06-01T11:57:01.878Z,4.57
2018-06-01T11:59:30.208Z,4.10
2018-06-01T12:01:58.557Z,4.60
2018-06-01T12:04:26.885Z,4.57
2018-06-01T12:06:55.242Z,4.47
2018-06-01T12:09:23.565Z,5.07
2018-06-01T12:11:51.908Z,4.03
2018-06-01T12:14:20.233Z,3.90
2018-06-01T12:16:48.580Z,4.30
2018-06-01T12:19:16.917Z,4.80
2018-06-01T12:21:45.265Z,4.23
2018-06-01T12:24:13.605Z,4.30
2018-06-01T12:26:41.974Z,4.70
2018-06-01T12:29:10.332Z,4.47
2018-06-01T12:31:38.673Z,5.28
2018-06-01T12:34:07.049Z,4.97
2018-06-01T12:36:35.405Z,4.82
2018-06-01T12:39:03.764Z,4.83
2018-06-01T12:41:32.128Z,5.00
2018-06-01T12:44:00.520Z,5.55
2018-06-01T12:46:28.874Z,5.57
2018-06-01T12:48:57.203Z,5.80
2018-06-01T12:51:25.560Z,5.27
2018-06-01T12:53:53.902Z,5.07
2018-06-01T12:56:22.248Z,5.57
2018-06-01T12:58:50.591Z,4.93
2018-06-01T13:01:19.788Z,5.80
2018-06-01T13:03:48.682Z,6.07
2018-06-01T13:06:17.104Z,6.03
2018-06-01T13:08:45.433Z,6.90
2018-06-01T13:11:13.784Z,6.70
2018-06-01T13:13:42.111Z,7.20
2018-06-01T13:16:10.468Z,7.40
2018-06-01T13:18:38.803Z,7.70
2018-06-01T13:21:07.177Z,8.13
2018-06-01T13:23:35.517Z,7.70
2018-06-01T13:26:03.853Z,8.37
2018-06-01T13:28:32.240Z,7.53
2018-06-01T13:31:00.576Z,8.53
2018-06-01T13:33:28.945Z,8.20
2018-06-01T13:35:57.280Z,8.77
2018-06-01T13:38:25.632Z,9.40
2018-06-01T13:40:54.033Z,10.83
2018-06-01T13:43:22.390Z,11.43
2018-06-01T13:45:50.724Z,11.80
2018-06-01T13:48:19.821Z,12.82
2018-06-01T13:50:48.162Z,11.90
2018-06-01T13:53:16.525Z,12.52
2018-06-01T13:55:44.877Z,12.13
2018-06-01T13:58:13.249Z,13.23
2018-06-01T14:00:41.568Z,14.00
2018-06-01T14:03:09.929Z,14.80
2018-06-01T14:05:38.264Z,15.50
2018-06-01T14:08:06.626Z,15.23
2018-06-01T14:10:34.976Z,14.40
2018-06-01T14:13:03.345Z,17.27
2018-06-01T14:15:31.685Z,14.07
2018-06-01T14:18:00.048Z,15.70
2018-06-01T14:20:28.402Z,17.37
2018-06-01T14:22:56.776Z,17.67
2018-06-01T14:25:25.125Z,16.27
2018-06-01T14:27:53.480Z,15.68
2018-06-01T14:30:21.825Z,14.90
2018-06-01T14:32:50.189Z,16.85
2018-06-01T14:35:18.586Z,15.10
2018-06-01T14:37:46.885Z,14.50
2018-06-01T14:40:15.264Z,15.80
2018-06-01T14:42:43.606Z,14.40
2018-06-01T14:45:11.933Z,14.70
2018-06-01T14:47:40.293Z,16.27
2018-06-01T14:50:08.636Z,16.05
2018-06-01T14:52:36.996Z,15.37
2018-06-01T14:55:05.332Z,13.30
2018-06-01T14:57:33.865Z,14.00
2018-06-01T15:00:02.219Z,15.03
2018-06-01T15:02:30.576Z,14.70
2018-06-01T15:04:58.912Z,15.27
2018-06-01T15:07:27.277Z,14.60
2018-06-01T15:09:55.613Z,15.63
2018-06-01T15:12:23.965Z,15.30
2018-06-01T15:14:52.309Z,15.40
2018-06-01T15:17:21.108Z,15.43
2018-06-01T15:19:49.450Z,15.17
2018-06-01T15:22:17.812Z,16.43
2018-06-01T15:24:46.152Z,16.35
2018-06-01T15:27:14.501Z,17.87
2018-06-01T15:29:42.850Z,16.12
2018-06-01T15:32:11.189Z,16.02
2018-06-01T15:34:39.547Z,16.47
2018-06-01T15:37:08.717Z,18.00
2018-06-01T15:39:37.080Z,16.37
2018-06-01T15:42:05.441Z,16.20
2018-06-01T15:44:33.791Z,17.20
2018-06-01T15:47:02.132Z,16.42
2018-06-01T15:49:30.488Z,40.13
2018-06-01T15:51:58.829Z,16.67
2018-06-01T15:54:27.574Z,14.97
2018-06-01T15:56:56.261Z,18.80
2018-06-01T15:59:25.063Z,16.07
2018-06-01T16:01:54.577Z,15.73
2018-06-01T16:04:22.945Z,16.05
2018-06-01T16:06:51.284Z,16.95
2018-06-01T16:09:20.412Z,15.70
2018-06-01T16:11:48.754Z,15.00
2018-06-01T16:14:17.151Z,17.57
2018-06-01T16:16:45.449Z,15.63
2018-06-01T16:19:13.804Z,15.70
2018-06-01T16:21:42.145Z,16.40
2018-06-01T16:24:10.518Z,16.20
2018-06-01T16:26:38.861Z,14.77
2018-06-01T16:29:07.198Z,17.17
2018-06-01T16:31:35.563Z,17.23
2018-06-01T16:34:03.888Z,16.03
2018-06-01T16:36:32.244Z,16.53
2018-06-01T16:40:57.115Z,15.60
2018-06-01T16:43:25.447Z,15.67
2018-06-01T16:45:53.806Z,17.80
2018-06-01T16:48:22.136Z,17.97
2018-06-01T16:50:50.505Z,17.50
2018-06-01T16:53:18.836Z,15.60
2018-06-01T16:55:47.206Z,16.23
2018-06-01T16:58:15.541Z,16.02
2018-06-01T17:00:43.921Z,15.82
2018-06-01T17:03:12.262Z,16.52
2018-06-01T17:05:40.621Z,18.40
2018-06-01T17:08:08.964Z,16.00
2018-06-01T17:10:37.325Z,16.70
2018-06-01T17:13:05.659Z,17.58
2018-06-01T17:15:34.028Z,14.93
2018-06-01T17:18:02.361Z,16.87
2018-06-01T17:20:30.729Z,16.80
2018-06-01T17:22:59.074Z,15.97
2018-06-01T17:25:27.409Z,15.63
2018-06-01T17:27:55.759Z,16.57
2018-06-01T17:30:24.100Z,16.90
2018-06-01T17:32:52.457Z,16.77
2018-06-01T17:35:20.787Z,16.53
2018-06-01T17:37:49.434Z,16.60
2018-06-01T17:40:17.721Z,14.47
2018-06-01T17:42:46.080Z,16.27
2018-06-01T17:45:14.425Z,15.03
2018-06-01T17:47:42.776Z,17.60
2018-06-01T17:50:11.116Z,14.73
2018-06-01T17:52:39.476Z,16.90
2018-06-01T17:55:07.820Z,17.10
2018-06-01T17:57:36.178Z,14.43
2018-06-01T18:00:06.373Z,16.55
2018-06-01T18:02:34.849Z,15.73
2018-06-01T18:05:03.194Z,14.90
2018-06-01T18:07:32.503Z,14.57
2018-06-01T18:10:00.844Z,14.70
2018-06-01T18:12:29.195Z,14.17
2018-06-01T18:14:57.533Z,14.82
2018-06-01T18:17:25.916Z,16.80
2018-06-01T18:19:54.257Z,17.73
2018-06-01T18:22:22.638Z,15.77
2018-06-01T18:24:50.956Z,16.27
2018-06-01T18:27:20.179Z,16.08
2018-06-01T18:29:48.515Z,15.80
2018-06-01T18:32:16.852Z,17.30
2018-06-01T18:34:45.216Z,15.82
2018-06-01T18:37:13.561Z,15.40
2018-06-01T18:39:41.923Z,16.37
2018-06-01T18:42:10.264Z,17.40
2018-06-01T18:44:38.629Z,16.70
2018-06-01T18:47:06.968Z,19.13
2018-06-01T18:49:35.386Z,15.23
2018-06-01T18:52:03.671Z,16.50
2018-06-01T18:54:32.029Z,16.93
2018-06-01T18:57:00.366Z,16.90
2018-06-01T18:59:28.723Z,16.53
2018-06-01T19:01:57.084Z,17.45
2018-06-01T19:04:25.436Z,16.20
2018-06-01T19:06:53.801Z,17.90
2018-06-01T19:09:22.179Z,16.93
2018-06-01T19:11:50.512Z,18.50
2018-06-01T19:14:18.880Z,18.73
2018-06-01T19:16:47.216Z,18.00
2018-06-01T19:19:15.590Z,17.85
2018-06-01T19:21:43.930Z,18.97
2018-06-01T19:24:12.294Z,18.10
2018-06-01T19:26:40.633Z,17.47
2018-06-01T19:29:08.988Z,19.40
2018-06-01T19:31:37.328Z,19.10
2018-06-01T19:34:05.690Z,19.60
2018-06-01T19:36:35.051Z,18.55
2018-06-01T19:39:03.388Z,17.33
2018-06-01T19:41:32.194Z,18.00
2018-06-01T19:44:00.523Z,17.17
2018-06-01T19:46:28.896Z,17.40
2018-06-01T19:48:57.224Z,18.57
2018-06-01T19:51:25.627Z,18.87
2018-06-01T19:53:53.966Z,17.65
2018-06-01T19:56:22.320Z,18.95
2018-06-01T19:58:51.030Z,17.58
2018-06-01T20:01:19.364Z,17.10
2018-06-01T20:03:47.695Z,18.43
2018-06-01T20:06:16.052Z,18.37
2018-06-01T20:08:44.388Z,19.43
2018-06-01T20:11:12.761Z,18.80
2018-06-01T20:13:41.096Z,19.98
2018-06-01T20:16:09.453Z,21.10
2018-06-01T20:18:38.637Z,20.27
2018-06-01T20:21:07.008Z,19.53
2018-06-01T20:23:35.357Z,20.60
2018-06-01T20:26:03.717Z,21.73
2018-06-01T20:28:32.061Z,22.53
2018-06-01T20:31:00.430Z,20.10
2018-06-01T20:33:28.768Z,21.35
2018-06-01T20:35:57.128Z,19.70
2018-06-01T20:38:26.304Z,21.27
2018-06-01T20:40:54.679Z,21.67
2018-06-01T20:43:23.017Z,27.73
2018-06-01T20:45:51.361Z,23.50
2018-06-01T20:48:19.728Z,22.50
2018-06-01T20:50:48.123Z,23.92
2018-06-01T20:53:16.424Z,22.95
2018-06-01T20:55:44.760Z,23.93
2018-06-01T20:58:13.125Z,20.97
2018-06-01T21:00:41.460Z,24.30
2018-06-01T21:03:09.826Z,23.40
2018-06-01T21:05:38.173Z,22.98
2018-06-01T21:08:06.536Z,21.17
2018-06-01T21:10:34.874Z,22.60
2018-06-01T21:13:03.241Z,22.43
2018-06-01T21:15:31.581Z,21.70
2018-06-01T21:18:00.720Z,23.07
2018-06-01T21:20:29.056Z,22.90
2018-06-01T21:22:57.416Z,22.50
2018-06-01T21:25:25.757Z,26.33
2018-06-01T21:27:54.121Z,24.40
2018-06-01T21:30:22.455Z,22.40
2018-06-01T21:32:50.825Z,23.45
2018-06-01T21:35:19.169Z,24.33
2018-06-01T21:37:47.528Z,25.60
2018-06-01T21:40:15.869Z,23.70
2018-06-01T21:42:44.228Z,22.70
2018-06-01T21:45:12.561Z,24.80
2018-06-01T21:47:40.925Z,23.90
2018-06-01T21:50:09.260Z,26.00
2018-06-01T21:52:37.617Z,26.60
2018-06-01T21:55:05.957Z,27.43
2018-06-01T21:57:35.040Z,28.00
2018-06-01T22:00:03.401Z,29.83
2018-06-01T22:02:31.745Z,28.47
2018-06-01T22:05:00.105Z,25.35
2018-06-01T22:07:28.445Z,32.47
2018-06-01T22:09:56.800Z,36.75
2018-06-01T22:12:25.132Z,35.70
2018-06-01T22:14:53.497Z,38.07
2018-06-01T22:17:21.946Z,37.17
2018-06-01T22:19:50.299Z,33.17
2018-06-01T22:22:19.537Z,36.00
2018-06-01T22:24:47.897Z,39.30
2018-06-01T22:27:16.224Z,39.53
2018-06-01T22:29:44.589Z,39.60
2018-06-01T22:32:12.924Z,39.50
2018-06-01T22:34:41.284Z,46.75
2018-06-01T22:37:09.625Z,46.30
2018-06-01T22:39:37.984Z,47.37
2018-06-01T22:42:06.316Z,45.90
2018-06-01T22:44:34.693Z,45.40
2018-06-01T22:47:03.029Z,45.03
2018-06-01T22:49:31.369Z,44.15
2018-06-01T22:51:59.724Z,45.28
2018-06-01T22:54:28.059Z,46.80
2018-06-01T22:56:56.425Z,47.70
2018-06-01T22:59:24.766Z,45.43
2018-06-01T23:01:53.121Z,48.20
2018-06-01T23:04:21.462Z,47.57
2018-06-01T23:06:49.836Z,49.05
2018-06-01T23:09:18.170Z,49.15
2018-06-01T23:11:46.530Z,47.30
2018-06-01T23:14:14.872Z,48.30
2018-06-01T23:16:43.954Z,45.27
2018-06-01T23:19:12.288Z,44.47
2018-06-01T23:21:40.649Z,45.50
2018-06-01T23:24:08.992Z,42.80
2018-06-01T23:26:37.357Z,46.03
2018-06-01T23:29:05.693Z,45.70
2018-06-01T23:31:34.049Z,47.50
2018-06-01T23:34:02.400Z,45.90
2018-06-01T23:36:30.785Z,45.27
2018-06-01T23:38:59.120Z,47.17
2018-06-01T23:41:27.457Z,46.37
2018-06-01T23:43:55.812Z,47.38
2018-06-01T23:46:24.157Z,49.85
2018-06-01T23:48:52.516Z,48.70
2018-06-01T23:51:20.864Z,49.10
2018-06-01T23:53:50.123Z,48.57
2018-06-01T23:56:18.465Z,47.53
2018-06-01T23:58:46.824Z,49.88
